Time;durP1;ratioP1;P1;durP2;ratioP2;P2;SDS_P1;SDS_P2;PMS_P1;PMS_P2;Temp;Humidity;BMP_temperature;BMP_pressure;BME280_temperature;BME280_humidity;BME280_pressure;Samples;Min_cycle;Max_cycle;Signal;HPM_P1;HPM_P2
2022/06/24 00:00:38;;;;;;;;;7.00;6.50;;;;;26.19;42.60;100078.59;4999167;28;45634;-82
2022/06/24 00:03:04;;;;;;;;;4.75;4.75;;;;;26.24;43.06;100102.97;4998017;28;45829;-80
2022/06/24 00:05:30;;;;;;;;;4.50;4.00;;;;;26.15;43.46;100092.72;4996301;28;45872;-81
2022/06/24 00:07:56;;;;;;;;;4.00;4.00;;;;;26.15;43.90;100095.41;4996228;28;46455;-81
2022/06/24 00:10:24;;;;;;;;;3.75;3.75;;;;;26.16;44.28;100102.41;4989365;28;45829;-81
2022/06/24 00:12:51;;;;;;;;;4.00;3.50;;;;;26.10;43.98;100097.94;4997233;28;45661;-81
2022/06/24 00:15:29;;;;;;;;;3.00;3.00;;;;;26.12;44.11;100112.78;4996702;28;47029;-81
2022/06/24 00:21:29;;;;;;;;;5.50;5.00;;;;;26.02;44.97;100111.66;4995073;28;45803;-80
2022/06/24 00:23:55;;;;;;;;;6.00;5.25;;;;;25.92;45.33;100106.78;4980981;28;45985;-81
2022/06/24 00:26:36;;;;;;;;;4.00;4.00;;;;;25.80;44.90;100095.16;4998666;28;46707;-80
2022/06/24 00:29:02;;;;;;;;;5.00;5.00;;;;;25.75;45.25;100098.47;4981969;28;47277;-82
2022/06/24 00:31:27;;;;;;;;;6.00;5.00;;;;;25.73;45.59;100094.38;5000451;28;45738;-82
2022/06/24 00:33:52;;;;;;;;;5.00;5.00;;;;;25.72;45.50;100096.22;4982607;28;45417;-82
2022/06/24 00:36:18;;;;;;;;;5.00;5.00;;;;;25.64;45.28;100103.75;4998675;28;45610;-81
2022/06/24 00:38:51;;;;;;;;;4.00;4.00;;;;;25.58;45.26;100108.13;4998005;28;45668;-81
2022/06/24 00:41:24;;;;;;;;;3.75;3.75;;;;;25.56;45.51;100117.41;4996360;28;45569;-80
2022/06/24 00:43:55;;;;;;;;;4.25;4.00;;;;;25.49;45.43;100106.69;4993425;28;45941;-80
2022/06/24 00:46:23;;;;;;;;;6.00;4.00;;;;;25.45;45.58;100106.31;4977127;28;46434;-80
2022/06/24 00:48:50;;;;;;;;;4.00;4.00;;;;;25.32;45.92;100087.63;4994932;28;45728;-81
2022/06/24 00:51:18;;;;;;;;;5.00;4.00;;;;;25.25;45.81;100092.25;4994747;28;45601;-80
2022/06/24 00:53:50;;;;;;;;;4.00;3.75;;;;;25.20;45.65;100086.72;4994749;28;45404;-82
2022/06/24 00:56:18;;;;;;;;;4.25;4.00;;;;;25.29;46.18;100106.03;4994950;28;45576;-81
2022/06/24 00:58:58;;;;;;;;;3.50;3.50;;;;;25.26;45.80;100101.94;4996915;28;46516;-82
2022/06/24 01:01:35;;;;;;;;;3.75;3.00;;;;;25.18;46.50;100090.63;4994791;28;45604;-82
2022/06/24 01:04:03;;;;;;;;;4.00;4.00;;;;;25.18;46.30;100098.69;4995225;28;45510;-81
2022/06/24 01:06:29;;;;;;;;;4.00;4.00;;;;;25.09;46.21;100106.19;4998535;28;46735;-80
2022/06/24 01:08:57;;;;;;;;;2.50;2.50;;;;;24.99;46.86;100106.63;4994400;28;45868;-81
2022/06/24 01:11:42;;;;;;;;;4.50;4.50;;;;;24.90;46.96;100104.41;4994577;28;45679;-80
2022/06/24 01:14:09;;;;;;;;;3.00;2.25;;;;;24.87;46.95;100099.47;4994507;28;45510;-82
2022/06/24 01:16:35;;;;;;;;;3.75;3.25;;;;;24.79;47.18;100094.31;4993592;28;46732;-81
2022/06/24 01:19:03;;;;;;;;;4.50;4.50;;;;;24.69;46.97;100092.13;4978453;28;46445;-81
2022/06/24 01:21:39;;;;;;;;;3.75;3.75;;;;;24.63;47.19;100091.09;4994571;28;45647;-81
2022/06/24 01:24:10;;;;;;;;;3.50;3.50;;;;;24.65;47.22;100096.25;4994573;28;45562;-81
2022/06/24 01:26:38;;;;;;;;;3.00;3.00;;;;;24.65;47.35;100093.59;4994053;28;46634;-80
2022/06/24 01:29:04;;;;;;;;;2.00;1.00;;;;;24.60;47.51;100091.53;4994260;28;45763;-81
2022/06/24 01:31:30;;;;;;;;;5.00;4.75;;;;;24.60;47.79;100099.59;4994228;28;45681;-80
2022/06/24 01:37:17;;;;;;;;;3.75;3.75;;;;;24.56;48.33;100109.06;4994017;28;45582;-81
2022/06/24 01:39:44;;;;;;;;;6.25;5.00;;;;;24.61;48.23;100116.50;4993996;28;46201;-81
2022/06/24 01:42:10;;;;;;;;;4.75;4.00;;;;;24.59;48.79;100124.72;4994883;28;45677;-81
2022/06/24 01:44:35;;;;;;;;;4.50;3.50;;;;;24.51;49.03;100113.41;4997461;28;45716;-81
2022/06/24 01:47:01;;;;;;;;;4.00;3.75;;;;;24.50;49.22;100119.81;4997385;28;46015;-81
2022/06/24 01:49:27;;;;;;;;;6.00;4.00;;;;;24.54;49.91;100140.63;4997506;28;46362;-81
2022/06/24 01:51:55;;;;;;;;;4.00;3.00;;;;;24.49;50.27;100135.06;4997610;28;46096;-81
2022/06/24 01:54:21;;;;;;;;;3.50;3.50;;;;;24.39;50.39;100128.50;4997735;28;45549;-82
2022/06/24 01:56:46;;;;;;;;;4.00;3.25;;;;;24.36;51.13;100127.06;4997359;28;46725;-82
2022/06/24 01:59:14;;;;;;;;;3.00;3.00;;;;;24.28;51.25;100121.94;4979307;28;47998;-80
2022/06/24 02:01:40;;;;;;;;;4.50;4.00;;;;;24.22;50.93;100120.94;4997241;28;45714;-81
2022/06/24 02:07:27;;;;;;;;;4.25;4.25;;;;;23.97;51.89;100119.88;4996808;28;46038;-82
2022/06/24 02:15:21;;;;;;;;;3.75;3.00;;;;;23.59;52.82;100102.84;4997053;28;45468;-81
2022/06/24 02:17:47;;;;;;;;;4.00;3.00;;;;;23.41;52.87;100087.38;4996923;28;45514;-81
2022/06/24 02:20:12;;;;;;;;;3.00;3.00;;;;;23.41;53.09;100104.25;4996958;28;45548;-80
2022/06/24 02:22:37;;;;;;;;;4.25;4.00;;;;;23.34;53.24;100107.94;4996999;28;45628;-80
2022/06/24 02:25:03;;;;;;;;;4.00;4.00;;;;;23.18;53.13;100117.16;4997113;28;45769;-80
2022/06/24 02:27:28;;;;;;;;;4.50;3.50;;;;;23.14;54.18;100126.63;4996632;28;45556;-81
2022/06/24 02:29:54;;;;;;;;;3.75;3.75;;;;;23.11;54.84;100121.66;4997035;28;46286;-80
2022/06/24 02:32:19;;;;;;;;;4.25;4.00;;;;;23.00;55.36;100096.34;4996855;28;45514;-81
2022/06/24 02:34:45;;;;;;;;;4.50;4.50;;;;;23.04;55.88;100094.13;4996717;28;45685;-80
2022/06/24 02:37:10;;;;;;;;;4.50;4.00;;;;;23.06;56.41;100092.03;4996292;28;46721;-81
2022/06/24 02:39:35;;;;;;;;;3.75;3.00;;;;;23.07;55.67;100087.53;4996634;28;45828;-82
2022/06/24 02:42:01;;;;;;;;;4.00;3.50;;;;;23.02;55.67;100085.47;4978757;28;45750;-80
2022/06/24 02:44:26;;;;;;;;;3.00;3.00;;;;;23.07;55.55;100083.00;4996921;28;45701;-82
2022/06/24 02:46:51;;;;;;;;;4.00;4.00;;;;;22.99;55.58;100062.66;4996592;28;45612;-81
2022/06/24 02:52:39;;;;;;;;;2.00;2.00;;;;;22.97;55.08;100077.22;4996408;28;45730;-82
2022/06/24 02:55:05;;;;;;;;;3.25;3.00;;;;;22.92;55.44;100075.19;4995161;28;45440;-81
2022/06/24 02:57:30;;;;;;;;;3.50;3.50;;;;;22.95;55.07;100082.78;4996459;28;46612;-80
2022/06/24 02:59:55;;;;;;;;;4.00;4.00;;;;;22.91;55.27;100086.06;4996011;28;46169;-80
2022/06/24 03:02:21;;;;;;;;;3.00;3.00;;;;;22.83;56.00;100067.56;4996164;28;46115;-81
2022/06/24 03:08:09;;;;;;;;;2.75;2.00;;;;;22.86;54.99;100080.50;4994998;28;45562;-81
2022/06/24 03:10:35;;;;;;;;;2.75;2.75;;;;;22.71;55.41;100074.47;4995292;28;45869;-81
2022/06/24 03:13:04;;;;;;;;;3.00;3.00;;;;;22.62;55.83;100076.47;4995607;28;45616;-81
2022/06/24 03:15:30;;;;;;;;;4.00;3.00;;;;;22.52;56.12;100068.00;4979470;28;45639;-80
2022/06/24 03:17:56;;;;;;;;;3.50;3.00;;;;;22.51;55.99;100064.50;4999366;28;46074;-82
2022/06/24 03:20:21;;;;;;;;;3.50;3.00;;;;;22.49;56.31;100053.22;4995828;28;45950;-83
2022/06/24 03:22:47;;;;;;;;;3.00;3.00;;;;;22.46;56.30;100052.78;4995838;28;45994;-81
2022/06/24 03:25:12;;;;;;;;;4.50;4.00;;;;;22.47;56.83;100049.09;4995217;28;45745;-82
2022/06/24 03:27:38;;;;;;;;;5.00;4.50;;;;;22.47;56.60;100055.25;4995171;28;45540;-82
2022/06/24 03:30:05;;;;;;;;;3.25;3.25;;;;;22.57;56.67;100077.06;4995188;28;45601;-82
2022/06/24 03:32:31;;;;;;;;;3.00;3.00;;;;;22.50;56.88;100068.22;4994953;28;45713;-81
2022/06/24 03:38:18;;;;;;;;;4.50;4.00;;;;;22.53;57.41;100070.50;4994685;28;46046;-81
2022/06/24 03:40:43;;;;;;;;;6.00;5.00;;;;;22.50;57.44;100070.06;4995086;28;45683;-82
2022/06/24 03:43:09;;;;;;;;;4.75;4.00;;;;;22.45;57.93;100065.34;4995193;28;45604;-81
2022/06/24 03:45:34;;;;;;;;;4.67;4.67;;;;;22.44;57.46;100060.19;4994897;28;45523;-81
2022/06/24 03:48:00;;;;;;;;;4.00;3.50;;;;;22.43;57.54;100058.53;4995032;28;45606;-81
2022/06/24 03:53:47;;;;;;;;;3.75;3.75;;;;;22.41;57.90;100057.91;4994591;28;45743;-83
2022/06/24 03:56:12;;;;;;;;;4.00;4.00;;;;;22.38;58.24;100055.66;4995016;28;46048;-81
2022/06/24 03:58:38;;;;;;;;;4.00;3.00;;;;;22.38;58.99;100051.13;4994595;28;46538;-82
2022/06/24 04:01:03;;;;;;;;;3.00;3.00;;;;;22.41;59.06;100052.56;4994676;28;45502;-80
2022/06/24 04:03:29;;;;;;;;;6.50;5.00;;;;;22.32;58.70;100032.41;4976690;28;45636;-81
2022/06/24 04:05:55;;;;;;;;;6.00;5.25;;;;;22.40;58.86;100057.06;4994385;28;45663;-81
2022/06/24 04:08:20;;;;;;;;;4.50;3.75;;;;;22.39;58.65;100058.13;4976424;28;47267;-81
2022/06/24 04:10:46;;;;;;;;;4.25;4.25;;;;;22.39;58.42;100052.78;4994490;28;45840;-79
2022/06/24 04:13:11;;;;;;;;;3.00;3.00;;;;;22.32;58.73;100051.91;4994923;28;45625;-82
2022/06/24 04:15:44;;;;;;;;;3.75;3.50;;;;;22.36;58.55;100057.69;4994254;28;45867;-81
2022/06/24 04:18:09;;;;;;;;;4.00;4.00;;;;;22.31;58.81;100058.28;4994548;28;45663;-81
2022/06/24 04:24:10;;;;;;;;;5.00;4.50;;;;;22.34;59.25;100068.56;4992427;28;45959;-81
2022/06/24 04:26:36;;;;;;;;;5.75;4.00;;;;;22.33;58.93;100063.44;4994539;28;45776;-81
2022/06/24 04:29:01;;;;;;;;;4.00;4.00;;;;;22.29;58.66;100065.69;4976344;28;48284;-81
2022/06/24 04:31:27;;;;;;;;;5.75;4.50;;;;;22.28;58.98;100064.03;4994204;28;46061;-81
2022/06/24 04:33:52;;;;;;;;;5.00;5.00;;;;;22.36;59.21;100071.03;4994059;28;45680;-81
2022/06/24 04:36:17;;;;;;;;;4.00;4.00;;;;;22.32;58.98;100062.59;4994227;28;45628;-81
2022/06/24 04:38:43;;;;;;;;;4.00;3.75;;;;;22.28;58.80;100050.69;4994053;28;46450;-81
2022/06/24 04:41:13;;;;;;;;;5.00;5.00;;;;;22.33;58.90;100056.25;4994226;28;45696;-81
2022/06/24 04:43:39;;;;;;;;;4.25;3.00;;;;;22.44;59.38;100078.88;4994106;28;45741;-81
2022/06/24 04:46:04;;;;;;;;;3.00;3.00;;;;;22.43;58.80;100074.56;4976510;28;45566;-81
2022/06/24 04:48:30;;;;;;;;;3.00;3.00;;;;;22.44;58.96;100076.22;4993408;28;45581;-80
2022/06/24 04:54:17;;;;;;;;;5.75;5.25;;;;;22.47;59.16;100057.94;4994068;28;45828;-82
2022/06/24 04:56:43;;;;;;;;;3.00;3.00;;;;;22.46;58.99;100052.78;4994317;28;45727;-81
2022/06/24 04:59:08;;;;;;;;;4.00;3.75;;;;;22.49;59.23;100063.91;4994111;28;45720;-81
2022/06/24 05:01:34;;;;;;;;;6.00;5.50;;;;;22.47;59.08;100065.13;4993865;28;45663;-82
2022/06/24 05:04:00;;;;;;;;;6.00;5.50;;;;;22.44;59.50;100074.38;4993812;28;46120;-82
2022/06/24 05:10:15;;;;;;;;;6.00;5.00;;;;;22.40;59.76;100073.09;4993261;28;45978;-82
2022/06/24 05:12:40;;;;;;;;;5.25;5.00;;;;;22.38;59.24;100069.81;4993835;28;45785;-81
2022/06/24 05:15:06;;;;;;;;;6.00;5.00;;;;;22.34;59.52;100067.75;4993314;28;46109;-81
2022/06/24 05:17:32;;;;;;;;;6.25;5.50;;;;;22.28;59.73;100065.88;4992945;28;45816;-80
2022/06/24 05:19:57;;;;;;;;;5.00;5.00;;;;;22.27;59.81;100072.22;4975723;28;48505;-82
2022/06/24 05:22:23;;;;;;;;;5.75;4.50;;;;;22.20;59.80;100069.50;4996874;28;45666;-82
2022/06/24 05:24:48;;;;;;;;;6.25;6.25;;;;;22.15;59.84;100066.63;4995472;28;45652;-81
2022/06/24 05:27:13;;;;;;;;;4.75;4.75;;;;;22.12;59.80;100072.34;5003918;28;45647;-82
2022/06/24 05:29:39;;;;;;;;;7.00;6.00;;;;;22.05;60.04;100061.63;5000913;28;45677;-80
2022/06/24 05:32:05;;;;;;;;;7.25;5.00;;;;;22.11;60.00;100073.38;4994507;28;45593;-81
2022/06/24 05:34:30;;;;;;;;;5.75;5.00;;;;;22.00;60.70;100066.75;4992982;28;45687;-80
2022/06/24 05:36:55;;;;;;;;;5.75;5.00;;;;;21.95;60.39;100076.34;4993911;28;45701;-82
2022/06/24 05:39:21;;;;;;;;;7.50;7.00;;;;;21.98;60.61;100074.09;4993291;28;45591;-82
2022/06/24 05:41:46;;;;;;;;;7.25;7.25;;;;;22.02;60.77;100088.72;4975590;28;47107;-82
2022/06/24 05:44:12;;;;;;;;;4.75;4.25;;;;;21.93;60.70;100073.00;4993725;28;45621;-81
2022/06/24 05:46:38;;;;;;;;;6.00;6.00;;;;;21.94;60.73;100077.34;4975814;28;45717;-82
2022/06/24 05:49:04;;;;;;;;;7.75;6.00;;;;;21.92;60.63;100076.69;4992924;28;45780;-81
2022/06/24 05:55:03;;;;;;;;;5.00;5.00;;;;;21.94;60.26;100082.66;4992640;28;45703;-81
2022/06/24 05:57:29;;;;;;;;;7.00;7.00;;;;;21.95;60.51;100087.84;4993309;28;45613;-80
2022/06/24 05:59:54;;;;;;;;;5.50;5.25;;;;;21.97;60.48;100101.78;4992734;28;45936;-80
2022/06/24 06:02:22;;;;;;;;;5.00;5.00;;;;;21.96;60.63;100094.84;4992988;28;45700;-80
2022/06/24 06:04:48;;;;;;;;;10.00;9.25;;;;;21.92;59.89;100087.38;4992773;28;45734;-81
2022/06/24 06:07:13;;;;;;;;;8.00;6.75;;;;;21.92;60.10;100098.84;4992972;28;45498;-81
2022/06/24 06:09:38;;;;;;;;;5.75;5.00;;;;;22.00;60.42;100108.59;4992484;28;45886;-85
2022/06/24 06:12:04;;;;;;;;;5.25;5.00;;;;;21.95;60.28;100092.34;4992396;28;45732;-81
2022/06/24 06:14:30;;;;;;;;;5.50;5.00;;;;;21.93;59.80;100099.69;4991674;28;45594;-85
2022/06/24 06:16:55;;;;;;;;;4.25;4.00;;;;;21.84;59.62;100095.53;4993586;28;45672;-84
2022/06/24 06:19:20;;;;;;;;;5.00;4.00;;;;;21.83;60.39;100093.88;4992841;28;46084;-80
2022/06/24 06:25:09;;;;;;;;;3.25;3.25;;;;;21.84;60.15;100106.19;4990986;28;45725;-80
2022/06/24 06:27:36;;;;;;;;;5.75;5.75;;;;;21.76;60.02;100102.66;4992994;28;45632;-80
2022/06/24 06:30:03;;;;;;;;;5.50;5.50;;;;;21.77;60.21;100106.97;4996012;28;45680;-82
2022/06/24 06:32:28;;;;;;;;;7.00;6.25;;;;;21.63;60.40;100096.41;4994481;28;46018;-82
2022/06/24 06:34:53;;;;;;;;;7.25;5.50;;;;;21.66;60.33;100110.16;4978566;28;45585;-78
2022/06/24 06:40:45;;;;;;;;;5.50;4.50;;;;;21.67;60.74;100109.16;4995449;28;45700;-80
2022/06/24 06:43:13;;;;;;;;;6.00;5.00;;;;;21.68;61.08;100109.97;4995039;28;46247;-79
2022/06/24 06:45:38;;;;;;;;;6.75;6.00;;;;;21.72;60.71;100113.91;4977887;28;45613;-79
2022/06/24 06:48:05;;;;;;;;;4.00;3.50;;;;;21.76;60.67;100115.16;4995465;28;46232;-80
2022/06/24 06:50:33;;;;;;;;;3.50;3.50;;;;;21.77;60.40;100111.47;4977618;28;45692;-79
2022/06/24 06:52:58;;;;;;;;;5.25;4.00;;;;;21.72;60.00;100109.41;4995196;28;46312;-79
2022/06/24 06:55:23;;;;;;;;;8.25;8.00;;;;;21.77;60.66;100117.63;4994942;28;45630;-80
2022/06/24 06:57:50;;;;;;;;;5.25;4.00;;;;;21.85;59.80;100123.84;4995028;28;45741;-80
2022/06/24 07:00:17;;;;;;;;;4.75;4.00;;;;;21.82;59.89;100125.06;4994804;28;46373;-80
2022/06/24 07:02:42;;;;;;;;;4.00;4.00;;;;;21.76;59.70;100115.16;4995432;28;46526;-79
2022/06/24 07:05:08;;;;;;;;;6.00;5.00;;;;;21.83;60.06;100123.22;4995648;28;45530;-81
2022/06/24 07:10:55;;;;;;;;;4.00;4.00;;;;;21.89;59.60;100117.94;4995127;28;46091;-80
2022/06/24 07:13:21;;;;;;;;;5.75;5.25;;;;;21.94;59.64;100120.00;4995326;28;45844;-82
2022/06/24 07:15:46;;;;;;;;;4.00;4.00;;;;;21.94;59.36;100115.53;4995492;28;45851;-81
2022/06/24 07:18:12;;;;;;;;;4.00;4.00;;;;;21.89;59.63;100096.59;4995924;28;45832;-83
2022/06/24 07:20:37;;;;;;;;;2.00;1.50;;;;;22.03;59.59;100109.03;4994580;28;46698;-80
2022/06/24 07:23:03;;;;;;;;;5.25;4.75;;;;;22.00;59.85;100096.09;4995295;28;45793;-79
2022/06/24 07:25:30;;;;;;;;;4.75;4.00;;;;;22.06;59.28;100097.16;4994811;28;45654;-76
2022/06/24 07:27:55;;;;;;;;;5.75;5.25;;;;;22.11;58.99;100103.56;4995259;28;45992;-77
2022/06/24 07:30:21;;;;;;;;;4.75;4.75;;;;;22.14;59.02;100108.47;4994729;28;47685;-76
2022/06/24 07:32:47;;;;;;;;;4.00;4.00;;;;;22.17;59.13;100104.63;4995212;28;45710;-78
2022/06/24 07:35:12;;;;;;;;;4.00;4.00;;;;;;;;4995015;28;45624;-80
2022/06/24 07:41:00;;;;;;;;;4.00;4.00;;;;;22.25;59.45;100104.44;4993864;28;45585;-77
2022/06/24 07:43:26;;;;;;;;;4.75;4.25;;;;;22.28;59.27;100100.56;4976987;28;46527;-76
2022/06/24 07:45:52;;;;;;;;;4.75;4.25;;;;;22.30;58.71;100101.16;4994994;28;45804;-76
2022/06/24 07:48:18;;;;;;;;;5.00;4.00;;;;;22.29;58.69;100096.88;4995014;28;45703;-80
2022/06/24 07:50:43;;;;;;;;;3.25;3.25;;;;;22.34;58.89;100105.94;4994822;28;45692;-80
2022/06/24 07:59:15;;;;;;;;;4.00;4.00;;;;;22.45;58.95;100085.88;4994403;28;45842;-77
2022/06/24 08:01:41;;;;;;;;;5.50;4.50;;;;;22.48;58.12;100082.78;4994886;28;45867;-80
2022/06/24 08:04:09;;;;;;;;;3.75;3.00;;;;;22.55;58.22;100086.31;4994461;28;46263;-78
2022/06/24 08:06:40;;;;;;;;;5.00;4.00;;;;;22.63;58.29;100093.31;4994620;28;45727;-78
2022/06/24 08:09:06;;;;;;;;;4.25;4.25;;;;;22.65;58.29;100088.63;4994607;28;45640;-81
2022/06/24 08:11:32;;;;;;;;;2.00;2.00;;;;;22.67;58.50;100097.25;4994535;28;45770;-79
2022/06/24 08:13:58;;;;;;;;;5.00;4.75;;;;;22.69;57.65;100090.69;4976462;28;46106;-77
2022/06/24 08:16:24;;;;;;;;;6.00;5.00;;;;;22.72;58.31;100093.00;4993335;28;45776;-78
2022/06/24 08:18:50;;;;;;;;;4.50;4.50;;;;;22.69;57.40;100101.38;4994430;28;45780;-78
2022/06/24 08:21:16;;;;;;;;;4.00;4.00;;;;;22.72;57.51;100108.19;4994405;28;45788;-77
2022/06/24 08:23:41;;;;;;;;;5.25;4.50;;;;;22.70;56.65;100102.19;4994580;28;45720;-78
2022/06/24 08:26:07;;;;;;;;;4.00;4.00;;;;;22.72;56.63;100106.34;4993913;28;45866;-78
2022/06/24 08:28:32;;;;;;;;;4.25;4.25;;;;;22.71;56.27;100103.84;4992790;28;45599;-77
2022/06/24 08:30:57;;;;;;;;;4.25;4.00;;;;;22.74;56.05;100100.78;4976604;28;45648;-77
2022/06/24 08:33:29;;;;;;;;;4.00;4.00;;;;;22.72;55.09;100101.00;4993620;28;46234;-78
2022/06/24 08:35:55;;;;;;;;;4.00;3.75;;;;;22.69;55.46;100087.19;4994241;28;45683;-79
2022/06/24 08:41:46;;;;;;;;;3.25;3.00;;;;;22.74;55.62;100098.13;4993951;28;46179;-80
2022/06/24 08:44:12;;;;;;;;;4.50;3.25;;;;;22.77;55.90;100101.22;4993811;28;46004;-81
2022/06/24 08:46:40;;;;;;;;;2.75;2.00;;;;;22.75;55.14;100094.44;4993854;28;45728;-77
2022/06/24 08:49:06;;;;;;;;;2.25;1.00;;;;;22.80;54.70;100094.66;4993994;28;45664;-77
2022/06/24 08:51:34;;;;;;;;;2.75;2.75;;;;;22.79;54.98;100080.47;4993025;28;45738;-78
2022/06/24 08:54:02;;;;;;;;;3.25;3.25;;;;;22.87;55.09;100082.97;4993666;28;46214;-77
2022/06/24 08:56:28;;;;;;;;;3.00;2.75;;;;;22.93;55.12;100086.69;4993900;28;45565;-78
2022/06/24 08:58:54;;;;;;;;;3.00;2.75;;;;;22.95;54.19;100073.94;4993647;28;45534;-79
2022/06/24 09:01:20;;;;;;;;;1.00;1.00;;;;;22.99;55.06;100075.19;4994016;28;46873;-79
2022/06/24 09:03:46;;;;;;;;;2.25;2.00;;;;;22.99;54.28;100059.16;4993698;28;46256;-79
2022/06/24 09:06:16;;;;;;;;;3.50;3.25;;;;;23.08;54.42;100073.16;4993468;28;45928;-77
2022/06/24 09:12:03;;;;;;;;;5.00;3.75;;;;;23.07;53.38;100058.13;4993514;28;45649;-77
2022/06/24 09:14:47;;;;;;;;;3.00;2.50;;;;;23.06;53.37;100067.16;4993580;28;45623;-78
2022/06/24 09:17:12;;;;;;;;;4.00;3.00;;;;;23.02;53.52;100048.06;4993986;28;45656;-77
2022/06/24 09:19:38;;;;;;;;;2.75;2.75;;;;;23.03;53.94;100060.41;4993530;28;45636;-78
2022/06/24 09:22:05;;;;;;;;;3.50;3.00;;;;;23.07;54.11;100055.47;4993628;28;46284;-77
2022/06/24 09:24:51;;;;;;;;;3.00;3.00;;;;;23.09;53.80;100048.06;4993042;28;46180;-78
2022/06/24 09:27:17;;;;;;;;;3.00;3.00;;;;;23.01;52.98;100030.38;4993558;28;45792;-77
2022/06/24 09:29:49;;;;;;;;;3.00;2.25;;;;;23.07;52.92;100045.59;4975240;28;45750;-79
2022/06/24 09:32:15;;;;;;;;;3.50;2.50;;;;;23.07;53.51;100034.06;4993598;28;45816;-78
2022/06/24 09:35:06;;;;;;;;;2.00;2.00;;;;;23.07;52.90;100045.59;4993684;28;46369;-77
2022/06/24 09:37:37;;;;;;;;;1.50;1.50;;;;;23.09;52.91;100032.84;4992329;28;45814;-79
2022/06/24 09:40:15;;;;;;;;;2.00;2.00;;;;;23.09;52.68;100035.53;4993260;28;45681;-79
2022/06/24 09:42:40;;;;;;;;;4.00;2.00;;;;;23.10;52.53;100031.00;4993531;28;45810;-77
2022/06/24 09:45:06;;;;;;;;;2.00;2.00;;;;;23.10;52.83;100017.66;4975355;28;48424;-77
2022/06/24 09:47:38;;;;;;;;;1.50;1.50;;;;;23.19;51.85;100027.94;4993298;28;46065;-78
2022/06/24 09:50:04;;;;;;;;;2.00;1.00;;;;;23.22;51.07;100016.00;4993341;28;45678;-78
2022/06/24 09:52:31;;;;;;;;;2.50;2.00;;;;;23.29;51.90;100019.50;4993131;28;45686;-78
2022/06/24 09:54:57;;;;;;;;;1.00;1.00;;;;;23.38;51.66;100021.75;4992964;28;45666;-78
2022/06/24 09:57:24;;;;;;;;;1.00;1.00;;;;;23.46;51.63;100014.59;4993405;28;45747;-77
2022/06/24 10:02:35;;;;;;;;;1.00;1.00;;;;;23.61;50.88;100017.84;4993157;28;46004;-77
2022/06/24 10:05:02;;;;;;;;;0.75;0.75;;;;;23.69;50.48;100012.31;4995915;28;45665;-79
2022/06/24 10:07:33;;;;;;;;;1.00;0.00;;;;;23.74;50.42;100018.66;4978559;28;45451;-79
2022/06/24 10:10:05;;;;;;;;;1.00;1.00;;;;;23.81;50.08;100022.13;4996525;28;45656;-79
2022/06/24 10:12:38;;;;;;;;;1.00;1.00;;;;;23.85;50.17;100014.53;4996364;28;46366;-79
2022/06/24 10:15:04;;;;;;;;;1.75;1.75;;;;;23.92;50.36;100022.53;4996547;28;45963;-77
2022/06/24 10:17:30;;;;;;;;;2.00;1.00;;;;;23.96;49.99;100026.44;4996292;28;45516;-77
2022/06/24 10:19:56;;;;;;;;;1.00;1.00;;;;;23.94;50.27;100017.78;4978576;28;45950;-79
2022/06/24 10:22:44;;;;;;;;;2.25;2.00;;;;;23.89;50.04;100026.44;4996346;28;45578;-78
2022/06/24 10:25:11;;;;;;;;;0.00;0.00;;;;;23.82;49.76;100022.97;4996018;28;46388;-78
2022/06/24 10:27:57;;;;;;;;;1.25;1.25;;;;;23.78;49.90;100030.59;4996495;28;45808;-78
2022/06/24 10:30:55;;;;;;;;;1.00;1.00;;;;;23.78;49.36;100032.44;4985887;28;45869;-78
2022/06/24 10:33:23;;;;;;;;;2.00;2.00;;;;;23.79;49.77;100032.25;4985249;28;48538;-80
2022/06/24 10:36:05;;;;;;;;;1.25;1.25;;;;;23.76;49.87;100007.75;5002068;28;46371;-80
2022/06/24 10:38:40;;;;;;;;;2.75;2.75;;;;;23.79;49.89;100013.50;4999713;28;45574;-79
2022/06/24 10:41:11;;;;;;;;;1.00;1.00;;;;;23.78;50.02;100003.00;4983738;28;45615;-78
2022/06/24 10:43:45;;;;;;;;;1.00;1.00;;;;;23.84;49.59;100003.00;5000494;28;46836;-79
2022/06/24 10:46:13;;;;;;;;;2.00;1.00;;;;;23.89;49.67;100002.38;5000578;28;45716;-77
2022/06/24 10:48:44;;;;;;;;;1.75;1.00;;;;;23.94;49.37;100001.75;5001239;28;45708;-78
2022/06/24 10:51:20;;;;;;;;;1.00;1.00;;;;;23.95;50.19;99998.84;5000670;28;45861;-78
2022/06/24 10:54:09;;;;;;;;;2.50;2.00;;;;;24.08;49.84;100006.00;4997420;28;46647;-81
2022/06/24 10:56:50;;;;;;;;;1.25;1.25;;;;;24.14;49.49;100005.16;4996933;28;46177;-78
2022/06/24 10:59:19;;;;;;;;;2.00;2.00;;;;;24.22;49.27;99992.41;4997472;28;45716;-79
2022/06/24 11:01:50;;;;;;;;;1.75;1.75;;;;;24.28;48.66;100006.81;4998168;28;45808;-80
2022/06/24 11:04:30;;;;;;;;;1.00;1.00;;;;;24.35;47.59;100009.44;5000019;28;46583;-80
2022/06/24 11:07:30;;;;;;;;;1.00;1.00;;;;;24.40;47.25;100006.97;4998274;28;46282;-79
2022/06/24 11:09:57;;;;;;;;;0.00;0.00;;;;;24.47;47.17;100003.19;4935805;28;45684;-80
2022/06/24 11:12:29;;;;;;;;;0.75;0.75;;;;;24.54;47.25;100000.50;4935286;28;46004;-81
2022/06/24 11:14:54;;;;;;;;;1.00;1.00;;;;;24.55;46.89;99999.47;4933523;28;45767;-80
2022/06/24 11:17:27;;;;;;;;;1.00;1.00;;;;;24.57;47.18;99992.00;4934644;28;45873;-80
2022/06/24 11:19:53;;;;;;;;;1.00;1.00;;;;;24.58;46.81;99996.34;4935030;28;45829;-80
2022/06/24 11:22:19;;;;;;;;;1.50;1.00;;;;;24.65;47.01;100007.84;4935003;28;45705;-79
2022/06/24 11:24:47;;;;;;;;;1.00;1.00;;;;;24.67;46.94;100000.41;4936317;28;45672;-78
2022/06/24 11:27:13;;;;;;;;;1.00;1.00;;;;;24.68;46.76;99999.38;4953970;28;45966;-81
2022/06/24 11:29:58;;;;;;;;;1.00;1.00;;;;;24.70;46.96;99999.97;4954929;28;45554;-78
2022/06/24 11:32:25;;;;;;;;;1.00;1.00;;;;;24.72;47.05;100002.44;4956097;28;45716;-80
2022/06/24 11:34:50;;;;;;;;;1.75;1.75;;;;;24.67;47.11;99989.69;4955341;28;45637;-79
2022/06/24 11:37:22;;;;;;;;;2.00;1.00;;;;;24.67;47.46;99995.88;4955496;28;45656;-79
2022/06/24 11:39:52;;;;;;;;;2.00;2.00;;;;;24.62;47.52;99984.97;4955240;28;45688;-78
2022/06/24 11:42:18;;;;;;;;;1.25;1.25;;;;;24.76;47.71;100004.47;4955967;28;45857;-82
2022/06/24 11:44:44;;;;;;;;;1.50;1.50;;;;;24.73;47.77;100001.41;4962948;28;45694;-81
2022/06/24 11:47:09;;;;;;;;;1.00;1.00;;;;;24.75;48.11;100005.50;4994610;28;47039;-81
2022/06/24 11:49:37;;;;;;;;;2.00;2.00;;;;;24.76;48.47;100006.34;4995738;28;46239;-81
2022/06/24 11:52:03;;;;;;;;;1.00;1.00;;;;;24.68;48.48;100012.75;4995419;28;45745;-80
2022/06/24 11:54:29;;;;;;;;;3.00;1.50;;;;;24.59;48.60;100014.88;4995528;28;46474;-82
2022/06/24 11:56:56;;;;;;;;;2.50;1.50;;;;;24.51;48.00;100008.94;4995881;28;45679;-83
2022/06/24 11:59:22;;;;;;;;;0.00;0.00;;;;;24.44;48.25;100010.84;4995727;28;45721;-82
2022/06/24 12:01:49;;;;;;;;;2.25;2.00;;;;;24.40;48.14;100010.44;4995558;28;45660;-81
2022/06/24 12:04:15;;;;;;;;;1.75;1.75;;;;;24.35;48.54;100001.41;4994755;28;45704;-82
2022/06/24 12:06:42;;;;;;;;;1.00;1.00;;;;;24.35;48.62;100012.94;4994868;28;46443;-83
2022/06/24 12:09:09;;;;;;;;;1.00;1.00;;;;;24.39;49.13;100021.38;4994855;28;45667;-81
2022/06/24 12:11:39;;;;;;;;;2.00;1.50;;;;;24.38;50.20;100006.34;4995136;28;45537;-82
2022/06/24 12:14:07;;;;;;;;;1.75;1.75;;;;;24.41;50.10;100011.25;4992842;28;47315;-83
2022/06/24 12:16:58;;;;;;;;;3.00;3.00;;;;;24.46;50.90;100014.94;4994818;28;45499;-81
2022/06/24 12:19:25;;;;;;;;;1.00;1.00;;;;;24.48;51.21;100009.38;4994498;28;45672;-82
2022/06/24 12:22:05;;;;;;;;;1.75;1.75;;;;;24.51;51.13;100016.97;4994647;28;45632;-82
2022/06/24 12:24:30;;;;;;;;;2.00;2.00;;;;;24.53;51.38;100013.06;5008881;28;47537;-82
2022/06/24 12:26:57;;;;;;;;;2.00;2.00;;;;;24.54;51.09;100009.34;4994141;28;45648;-81
2022/06/24 12:29:34;;;;;;;;;1.00;1.00;;;;;24.52;50.38;99997.19;4994286;28;45725;-82
2022/06/24 12:32:02;;;;;;;;;2.00;1.50;;;;;24.57;49.85;100008.09;4994587;28;45621;-82
2022/06/24 12:34:33;;;;;;;;;1.00;1.00;;;;;24.58;49.42;100005.19;4994074;28;46610;-82
2022/06/24 12:37:00;;;;;;;;;1.75;1.25;;;;;24.65;49.24;100002.50;4994825;28;45916;-82
2022/06/24 12:39:34;;;;;;;;;1.25;1.00;;;;;24.69;48.54;99995.66;4994218;28;45879;-81
2022/06/24 12:42:00;;;;;;;;;1.25;1.25;;;;;24.71;48.41;99987.41;4994599;28;45673;-81